Time;durP1;ratioP1;P1;durP2;ratioP2;P2;SDS_P1;SDS_P2;PMS_P1;PMS_P2;Temp;Humidity;BMP_temperature;BMP_pressure;BME280_temperature;BME280_humidity;BME280_pressure;Samples;Min_cycle;Max_cycle;Signal;HPM_P1;HPM_P2
2022/06/01 00:01:52;;;;;;;12.05;9.65;;;;;;;;;;4876963;29;20115;-84
2022/06/01 00:04:51;;;;;;;11.70;10.50;;;;;;;;;;4882955;29;20085;-84
2022/06/01 00:07:32;;;;;;;11.68;10.40;;;;;;;;;;4856951;29;20818;-85
2022/06/01 00:10:07;;;;;;;12.60;10.40;;;;;;;;;;4896132;29;20542;-85
2022/06/01 00:12:43;;;;;;;18.20;16.15;;;;;;;;;;4894282;29;20059;-85
2022/06/01 00:15:11;;;;;;;17.70;14.95;;;;;;;;;;4887328;29;20044;-84
2022/06/01 00:17:40;;;;;;;16.90;11.75;;;;;;;;;;4898293;29;20123;-85
2022/06/01 00:20:06;;;;;;;18.67;16.48;;;;;;;;;;4879110;29;20044;-85
2022/06/01 00:22:33;;;;;;;28.92;22.88;;;;;;;;;;4874257;29;20466;-85
2022/06/01 00:28:24;;;;;;;19.67;17.58;;;;;;;;;;4918297;23;20158;-85
2022/06/01 00:30:59;;;;;;;20.67;17.38;;;;;;;;;;4934241;28;20058;-85
2022/06/01 00:36:36;;;;;;;21.75;19.17;;;;;;;;;;4935060;23;20098;-86
2022/06/01 00:39:02;;;;;;;21.70;19.23;;;;;;;;;;4916482;29;20050;-85
2022/06/01 00:41:32;;;;;;;22.10;17.80;;;;;;;;;;4915405;29;20521;-86
2022/06/01 00:44:33;;;;;;;18.45;16.55;;;;;;;;;;4898144;28;20047;-84
2022/06/01 00:47:10;;;;;;;18.05;16.15;;;;;;;;;;4930197;29;20040;-85
2022/06/01 00:49:55;;;;;;;19.42;16.77;;;;;;;;;;4899088;29;20051;-85
2022/06/01 00:52:46;;;;;;;17.58;14.93;;;;;;;;;;4921042;23;20523;-85
2022/06/01 00:55:32;;;;;;;16.05;13.38;;;;;;;;;;4909294;29;20470;-85
2022/06/01 00:58:15;;;;;;;15.65;13.63;;;;;;;;;;4908580;29;20044;-84
2022/06/01 01:00:42;;;;;;;15.73;13.73;;;;;;;;;;4892804;29;20051;-86
2022/06/01 01:03:27;;;;;;;14.30;12.85;;;;;;;;;;4923405;29;20048;-86
2022/06/01 01:06:01;;;;;;;15.25;13.45;;;;;;;;;;4923279;29;20044;-85
2022/06/01 01:08:28;;;;;;;15.82;13.50;;;;;;;;;;4920176;29;20055;-84
2022/06/01 01:10:54;;;;;;;14.50;13.10;;;;;;;;;;4910451;29;20115;-84
2022/06/01 01:13:26;;;;;;;15.35;12.93;;;;;;;;;;4918082;23;20048;-85
2022/06/01 01:15:58;;;;;;;15.70;13.82;;;;;;;;;;4943668;29;20091;-84
2022/06/01 01:18:35;;;;;;;14.75;13.35;;;;;;;;;;4925501;29;20091;-84
2022/06/01 01:21:17;;;;;;;15.85;13.55;;;;;;;;;;4924700;29;20110;-85
2022/06/01 01:24:02;;;;;;;18.33;13.68;;;;;;;;;;4941365;28;20094;-85
2022/06/01 01:26:35;;;;;;;19.30;14.52;;;;;;;;;;4943017;28;20039;-84
2022/06/01 01:29:09;;;;;;;20.15;14.18;;;;;;;;;;4939552;28;20050;-85
2022/06/01 01:31:36;;;;;;;16.42;14.48;;;;;;;;;;4918704;28;20050;-85
2022/06/01 01:34:02;;;;;;;15.95;14.30;;;;;;;;;;4942748;28;20142;-85
2022/06/01 01:36:36;;;;;;;17.15;15.30;;;;;;;;;;4942603;29;20043;-86
2022/06/01 01:39:16;;;;;;;25.35;15.30;;;;;;;;;;4944081;28;20051;-86
2022/06/01 01:45:23;;;;;;;16.70;14.88;;;;;;;;;;4929976;23;20115;-86
2022/06/01 01:47:49;;;;;;;16.25;13.95;;;;;;;;;;4815210;29;20065;-85
2022/06/01 01:50:28;;;;;;;16.98;14.30;;;;;;;;;;4829187;29;20053;-85
2022/06/01 01:52:54;;;;;;;18.50;14.95;;;;;;;;;;4892862;29;20174;-84
2022/06/01 01:55:28;;;;;;;16.30;14.60;;;;;;;;;;4887709;29;20213;-83
2022/06/01 01:57:58;;;;;;;16.63;14.35;;;;;;;;;;4871152;29;20052;-84
2022/06/01 02:00:27;;;;;;;17.90;16.02;;;;;;;;;;4885474;29;20059;-83
2022/06/01 02:02:59;;;;;;;16.90;14.73;;;;;;;;;;4886268;29;20091;-83
2022/06/01 02:08:13;;;;;;;17.05;15.32;;;;;;;;;;4888196;29;20115;-83
2022/06/01 02:13:28;;;;;;;17.48;15.68;;;;;;;;;;4901803;29;20067;-83
2022/06/01 02:15:55;;;;;;;17.85;15.88;;;;;;;;;;4903262;29;20048;-83
2022/06/01 02:18:28;;;;;;;19.20;16.08;;;;;;;;;;4899956;29;20040;-84
2022/06/01 02:21:12;;;;;;;18.65;16.60;;;;;;;;;;4884875;29;20105;-85
2022/06/01 02:23:39;;;;;;;20.05;17.40;;;;;;;;;;4885494;29;20051;-84
2022/06/01 02:26:05;;;;;;;19.20;16.08;;;;;;;;;;4872030;29;20131;-83
2022/06/01 02:28:32;;;;;;;18.20;16.05;;;;;;;;;;4901260;29;20055;-83
2022/06/01 02:31:00;;;;;;;20.50;16.65;;;;;;;;;;4902739;29;20500;-83
2022/06/01 02:33:32;;;;;;;19.38;17.30;;;;;;;;;;4901256;29;20050;-85
2022/06/01 02:36:00;;;;;;;19.63;17.50;;;;;;;;;;4883828;29;20051;-83
2022/06/01 02:38:30;;;;;;;20.15;17.63;;;;;;;;;;4886892;29;20078;-84
2022/06/01 02:41:03;;;;;;;21.73;17.23;;;;;;;;;;4883350;29;20119;-81
2022/06/01 02:43:29;;;;;;;26.02;17.63;;;;;;;;;;4906526;29;20478;-84
2022/06/01 02:45:56;;;;;;;19.63;17.45;;;;;;;;;;4882687;29;20050;-84
2022/06/01 02:48:22;;;;;;;22.10;17.27;;;;;;;;;;4902362;29;20048;-84
2022/06/01 02:50:48;;;;;;;20.33;17.35;;;;;;;;;;4901389;29;20143;-83
2022/06/01 02:53:21;;;;;;;21.65;18.17;;;;;;;;;;4884427;29;20040;-83
2022/06/01 02:55:48;;;;;;;19.90;17.77;;;;;;;;;;4900431;29;20042;-83
2022/06/01 02:58:23;;;;;;;19.83;17.58;;;;;;;;;;4903021;29;20104;-83
2022/06/01 03:00:49;;;;;;;21.35;18.90;;;;;;;;;;4901971;29;20104;-83
2022/06/01 03:03:15;;;;;;;20.70;18.55;;;;;;;;;;4904600;29;20062;-82
2022/06/01 03:05:47;;;;;;;20.85;18.60;;;;;;;;;;4899435;29;20040;-83
2022/06/01 03:08:23;;;;;;;20.17;18.17;;;;;;;;;;4886577;29;20059;-83
2022/06/01 03:10:49;;;;;;;20.67;18.25;;;;;;;;;;4902202;29;20060;-83
2022/06/01 03:13:25;;;;;;;22.73;19.10;;;;;;;;;;4911166;29;20052;-82
2022/06/01 03:16:00;;;;;;;22.17;19.90;;;;;;;;;;4908841;29;20055;-83
2022/06/01 03:21:30;;;;;;;20.05;17.90;;;;;;;;;;4895530;29;20043;-82
2022/06/01 03:51:54;;;;;;;22.60;19.85;;;;;;;;;;4911937;29;20080;-84
2022/06/01 03:54:20;;;;;;;21.08;19.05;;;;;;;;;;4923663;29;20437;-84
2022/06/01 03:56:51;;;;;;;22.35;18.30;;;;;;;;;;4907756;29;20070;-83
2022/06/01 03:59:39;;;;;;;21.02;18.85;;;;;;;;;;4908576;29;20055;-84
2022/06/01 04:02:27;;;;;;;21.90;19.63;;;;;;;;;;4909113;29;21001;-84
2022/06/01 04:08:57;;;;;;;23.80;19.92;;;;;;;;;;4928580;29;20047;-86
2022/06/01 04:11:51;;;;;;;21.63;19.38;;;;;;;;;;4911713;29;20496;-84
2022/06/01 04:14:52;;;;;;;21.15;18.95;;;;;;;;;;4925173;29;20047;-84
2022/06/01 04:21:17;;;;;;;23.25;20.05;;;;;;;;;;4948863;29;20039;-86
2022/06/01 04:34:05;;;;;;;;;;;;;;;;;;4851806;29;20080;-83
2022/06/01 04:36:33;;;;;;;21.13;18.92;;;;;;;;;;4866425;29;19947;-83
2022/06/01 04:38:59;;;;;;;22.55;19.77;;;;;;;;;;4901140;29;20124;-83
2022/06/01 04:41:25;;;;;;;22.73;19.42;;;;;;;;;;4895207;29;20041;-83
2022/06/01 04:43:54;;;;;;;21.67;19.48;;;;;;;;;;4869775;29;20357;-84
2022/06/01 04:46:29;;;;;;;22.45;20.05;;;;;;;;;;4852792;29;20143;-84
2022/06/01 04:49:07;;;;;;;23.25;20.85;;;;;;;;;;4868027;29;20135;-83
2022/06/01 04:51:36;;;;;;;24.00;20.30;;;;;;;;;;4852290;29;20135;-83
2022/06/01 04:54:03;;;;;;;22.50;19.58;;;;;;;;;;4869088;29;20424;-83
2022/06/01 04:56:29;;;;;;;22.63;19.70;;;;;;;;;;4882146;29;20044;-82
2022/06/01 04:58:55;;;;;;;22.17;19.85;;;;;;;;;;4852983;29;20113;-82
2022/06/01 05:01:22;;;;;;;23.63;20.40;;;;;;;;;;4879442;29;20041;-84
2022/06/01 05:03:48;;;;;;;23.20;20.70;;;;;;;;;;4890838;23;20063;-85
2022/06/01 05:06:39;;;;;;;29.90;21.15;;;;;;;;;;4905640;29;20052;-86
2022/06/01 05:09:40;;;;;;;24.30;21.63;;;;;;;;;;4902484;29;20052;-87
2022/06/01 05:12:10;;;;;;;25.13;22.33;;;;;;;;;;4903058;29;20040;-82
2022/06/01 05:14:45;;;;;;;23.55;21.02;;;;;;;;;;4892107;29;20056;-85
2022/06/01 05:19:37;;;;;;;24.65;21.08;;;;;;;;;;5098936;23;20079;-84
2022/06/01 05:23:00;;;;;;;23.92;21.30;;;;;;;;;;4910971;29;20063;-84
2022/06/01 05:25:15;;;;;;;24.17;21.80;;;;;;;;;;4896833;29;20112;-84
2022/06/01 05:27:44;;;;;;;25.65;22.98;;;;;;;;;;4904708;29;20048;-83
2022/06/01 05:33:08;;;;;;;27.25;23.08;;;;;;;;;;4911046;29;20060;-85
2022/06/01 05:35:34;;;;;;;27.55;23.88;;;;;;;;;;4896354;29;20098;-83
2022/06/01 05:38:01;;;;;;;25.38;22.38;;;;;;;;;;4908396;29;20051;-84
2022/06/01 05:40:30;;;;;;;27.25;23.75;;;;;;;;;;4893485;29;20515;-84
2022/06/01 05:48:51;;;;;;;25.73;23.13;;;;;;;;;;4988389;23;20182;-82
2022/06/01 05:51:26;;;;;;;25.17;22.42;;;;;;;;;;4927256;29;20054;-84
2022/06/01 05:53:53;;;;;;;25.65;22.95;;;;;;;;;;4944062;28;20094;-84
2022/06/01 05:56:19;;;;;;;30.85;24.10;;;;;;;;;;4938311;29;20054;-84
2022/06/01 05:58:46;;;;;;;24.85;22.27;;;;;;;;;;4938541;29;20126;-84
2022/06/01 06:07:39;;;;;;;22.13;19.88;;;;;;;;;;4925820;23;20056;-86
2022/06/01 06:12:43;;;;;;;24.13;21.27;;;;;;;;;;4911043;23;20107;-84
2022/06/01 06:15:10;;;;;;;29.17;22.58;;;;;;;;;;4884845;29;20572;-84
2022/06/01 06:17:36;;;;;;;22.40;20.05;;;;;;;;;;4896395;29;20044;-84
2022/06/01 06:20:05;;;;;;;22.50;19.95;;;;;;;;;;4876071;29;20576;-84
2022/06/01 06:22:35;;;;;;;20.38;18.13;;;;;;;;;;4893737;29;20048;-84
2022/06/01 06:25:01;;;;;;;23.35;18.73;;;;;;;;;;4907075;29;20099;-84
2022/06/01 06:27:27;;;;;;;19.48;17.40;;;;;;;;;;4898115;29;20068;-84
2022/06/01 06:29:54;;;;;;;18.70;16.70;;;;;;;;;;4905422;29;20083;-83
2022/06/01 06:32:35;;;;;;;18.08;15.63;;;;;;;;;;4935712;23;20044;-85
2022/06/01 06:35:02;;;;;;;16.75;14.90;;;;;;;;;;4908894;29;20060;-84
2022/06/01 06:37:28;;;;;;;18.40;14.00;;;;;;;;;;4911320;29;20426;-84
2022/06/01 06:39:54;;;;;;;19.23;15.07;;;;;;;;;;4888476;29;20541;-85
2022/06/01 06:42:20;;;;;;;20.55;16.00;;;;;;;;;;4915484;29;20051;-84
2022/06/01 06:44:47;;;;;;;20.40;15.07;;;;;;;;;;4913532;29;20043;-85
2022/06/01 06:47:40;;;;;;;18.55;14.55;;;;;;;;;;4912413;29;20062;-85
2022/06/01 06:50:08;;;;;;;20.45;15.30;;;;;;;;;;4897414;29;20431;-83
2022/06/01 06:52:34;;;;;;;24.25;16.45;;;;;;;;;;4916654;29;20160;-84
2022/06/01 06:55:00;;;;;;;18.85;15.38;;;;;;;;;;4914264;29;20095;-82
2022/06/01 06:57:26;;;;;;;18.45;15.43;;;;;;;;;;4898404;29;20056;-84
2022/06/01 06:59:52;;;;;;;19.63;15.95;;;;;;;;;;4913770;29;20463;-83
2022/06/01 07:02:19;;;;;;;17.73;14.68;;;;;;;;;;4891639;29;20569;-84
2022/06/01 07:04:51;;;;;;;18.88;15.32;;;;;;;;;;4908225;29;20112;-84
2022/06/01 07:07:17;;;;;;;16.75;14.75;;;;;;;;;;4915367;29;20048;-85
2022/06/01 07:09:46;;;;;;;17.95;15.40;;;;;;;;;;4915230;29;20108;-84
2022/06/01 07:12:12;;;;;;;16.67;14.05;;;;;;;;;;4924079;29;20047;-85
2022/06/01 07:14:38;;;;;;;18.02;14.20;;;;;;;;;;4905920;29;20040;-84
2022/06/01 07:17:05;;;;;;;22.40;15.27;;;;;;;;;;4879832;29;20104;-86
2022/06/01 07:19:31;;;;;;;21.10;15.07;;;;;;;;;;4894869;29;20047;-83
2022/06/01 07:22:09;;;;;;;16.98;15.18;;;;;;;;;;4915512;29;20642;-85
2022/06/01 07:24:42;;;;;;;15.02;13.52;;;;;;;;;;4896024;29;20088;-84
2022/06/01 07:27:18;;;;;;;;;;;;;;;;;;;;;
2022/06/01 07:29:51;;;;;;;22.88;17.52;;;;;;;;;;4894216;29;20299;-83
2022/06/01 07:32:17;;;;;;;25.60;19.15;;;;;;;;;;4909534;29;20544;-84
2022/06/01 07:34:49;;;;;;;24.42;19.95;;;;;;;;;;4897091;29;20068;-84
2022/06/01 07:45:29;;;;;;;18.48;15.60;;;;;;;;;;4914605;29;20049;-86
2022/06/01 07:47:59;;;;;;;10.05;7.43;;;;;;;;;;4894533;29;20047;-85
2022/06/01 07:54:07;;;;;;;5.20;4.75;;;;;;;;;;4932016;23;20079;-87
2022/06/01 07:59:19;;;;;;;2.47;2.03;;;;;;;;;;4941186;29;20431;-87
2022/06/01 08:01:49;;;;;;;3.53;2.10;;;;;;;;;;4928754;29;20043;-83
2022/06/01 08:04:16;;;;;;;7.28;2.47;;;;;;;;;;4932504;28;20048;-86
2022/06/01 08:07:01;;;;;;;3.88;2.75;;;13.00;99.90;;;;;;4935656;29;20119;-87
2022/06/01 08:09:27;;;;;;;6.60;2.67;;;;;;;;;;4945604;29;20050;-87
2022/06/01 08:14:38;;;;;;;5.47;3.10;;;;;;;;;;4945438;29;20519;-86
2022/06/01 08:17:07;;;;;;;10.20;2.70;;;;;;;;;;4943957;29;20380;-86
2022/06/01 08:19:34;;;;;;;4.22;2.60;;;;;;;;;;4928611;29;20052;-85
2022/06/01 08:22:09;;;;;;;3.83;3.05;;;;;;;;;;4909446;29;20110;-87
2022/06/01 08:27:35;;;;;;;4.65;2.97;;;;;;;;;;4923822;29;20040;-85
2022/06/01 08:30:02;;;;;;;5.18;2.63;;;;;;;;;;4939157;29;20047;-87
2022/06/01 08:32:28;;;;;;;4.05;3.20;;;;;;;;;;4937084;29;20052;-88
2022/06/01 08:34:54;;;;;;;3.42;3.13;;;;;;;;;;4940895;29;20527;-85
2022/06/01 08:37:20;;;;;;;4.65;4.18;;;;;;;;;;4942676;29;20301;-88
2022/06/01 08:39:46;;;;;;;4.75;4.30;;;;;;;;;;4923748;29;20076;-86
2022/06/01 08:42:13;;;;;;;5.03;4.63;;;;;;;;;;4942550;29;20039;-90
2022/06/01 08:44:40;;;;;;;5.80;4.50;;;;;;;;;;4926575;29;20051;-87
2022/06/01 08:47:09;;;;;;;3.78;3.30;;;;;;;;;;4943118;29;20063;-87
2022/06/01 08:49:42;;;;;;;3.92;3.08;;;;;;;;;;4943817;29;20040;-85
2022/06/01 08:52:11;;;;;;;4.68;3.55;;;;;;;;;;4943532;29;20054;-85
2022/06/01 08:54:41;;;;;;;3.83;3.42;;;;;;;;;;4941473;28;20488;-88
2022/06/01 08:57:20;;;;;;;6.28;3.47;;;;;;;;;;4928956;29;20083;-88
2022/06/01 09:00:04;;;;;;;3.85;3.20;;;;;;;;;;4943401;29;20047;-88
2022/06/01 09:02:43;;;;;;;3.60;3.30;;;;;;;;;;4942547;29;20043;-87
2022/06/01 09:05:24;;;;;;;3.20;2.92;;;;;;;;;;4926111;29;20050;-89
2022/06/01 09:08:02;;;;;;;3.33;3.00;;;;;;;;;;4934957;29;20042;-87
2022/06/01 09:10:47;;;;;;;3.70;3.40;;;;;;;;;;4921727;29;20055;-84
2022/06/01 09:13:25;;;;;;;3.38;2.85;;;;;;;;;;4942837;29;20050;-84
2022/06/01 09:15:59;;;;;;;3.17;2.88;;;;;;;;;;4938359;29;20681;-86
2022/06/01 09:19:04;;;;;;;5.07;2.85;;;;;;;;;;4927232;29;20047;-88
2022/06/01 09:24:22;;;;;;;3.83;3.53;;;;;;;;;;4943282;29;20488;-88
2022/06/01 09:26:59;;;;;;;4.75;4.35;;;;;;;;;;4943390;29;20052;-86
2022/06/01 09:29:29;;;;;;;5.95;5.45;;;;;;;;;;4942358;29;20051;-86
2022/06/01 09:32:01;;;;;;;6.97;6.30;;;;;;;;;;4943563;29;20126;-85
2022/06/01 09:34:43;;;;;;;6.50;6.00;;;;;;;;;;4937971;29;20050;-87
2022/06/01 09:37:23;;;;;;;6.10;5.60;;;;;;;;;;4942763;29;20138;-87
2022/06/01 09:39:52;;;;;;;6.75;6.15;;;;;;;;;;4940905;29;20055;-88
2022/06/01 09:42:25;;;;;;;6.30;5.70;;;;;;;;;;4942274;29;20032;-87
2022/06/01 09:45:00;;;;;;;5.80;5.30;;;;;;;;;;4943363;29;20091;-86
2022/06/01 09:47:27;;;;;;;5.90;5.40;;;;;;;;;;4942729;29;20056;-85
2022/06/01 09:49:55;;;;;;;6.78;6.10;;;;;;;;;;4944260;29;20153;-88
2022/06/01 09:52:41;;;;;;;7.30;6.60;;;;;;;;;;4935692;29;20051;-84
2022/06/01 09:55:13;;;;;;;7.13;6.53;;;;;;;;;;4925319;29;20462;-86
2022/06/01 09:57:39;;;;;;;7.00;6.32;;;;;;;;;;4938451;29;20384;-82
2022/06/01 10:06:07;;;;;;;6.93;6.03;;;;;;;;;;4940647;29;20048;-82
2022/06/01 10:08:52;;;;;;;8.63;6.32;;;;;;;;;;4923914;29;20031;-89
2022/06/01 10:11:29;;;;;;;7.10;6.40;;;;;;;;;;4922264;29;20047;-85
2022/06/01 10:14:02;;;;;;;5.82;5.32;;;;;;;;;;4942269;29;20039;-86
2022/06/01 10:16:37;;;;;;;6.30;5.80;;;;;;;;;;4922203;29;20040;-86
2022/06/01 10:19:06;;;;;;;5.75;5.25;;;;;;;;;;4934739;29;20195;-93
2022/06/01 10:21:42;;;;;;;5.38;4.88;;;;;;;;;;4937460;29;20039;-88
2022/06/01 10:24:10;;;;;;;3.90;3.60;;;;;;;;;;4939571;29;20385;-88
2022/06/01 10:26:38;;;;;;;3.88;3.58;;;;;;;;;;4942070;29;20031;-87
2022/06/01 10:29:13;;;;;;;4.22;3.92;;;;;;;;;;4943704;29;20044;-87
2022/06/01 10:31:47;;;;;;;2.72;2.53;;;;;;;;;;4950394;29;20036;-92
2022/06/01 10:34:18;;;;;;;1.90;1.80;;;;;;;;;;4926654;29;20079;-84
2022/06/01 10:40:08;;;;;;;4.22;3.03;;;;;;;;;;4963328;23;20087;-88
2022/06/01 10:45:31;;;;;;;3.15;2.40;;;;;;;;;;4955795;29;20110;-85
2022/06/01 10:48:00;;;;;;;5.07;3.20;;;;;;;;;;4960417;29;20051;-88
2022/06/01 10:50:59;;;;;;;3.08;2.88;;;;;;;;;;4944465;29;20086;-86
2022/06/01 10:53:58;;;;;;;3.60;2.40;;;;;;;;;;4918737;29;21068;-90
2022/06/01 10:56:24;;;;;;;3.22;2.60;;;;;;;;;;4903516;29;20081;-90
2022/06/01 10:58:52;;;;;;;4.25;2.60;;;;;;;;;;4951131;28;20047;-84
2022/06/01 11:01:21;;;;;;;4.20;2.60;;;;;;;;;;4942902;29;20056;-88
2022/06/01 11:03:58;;;;;;;2.80;2.60;;;;;;;;;;4956881;29;20043;-87
2022/06/01 11:06:25;;;;;;;7.45;3.25;;;;;;;;;;4951577;29;20106;-87
2022/06/01 11:09:06;;;;;;;16.95;2.97;;;;;;;;;;4959885;28;20411;-91
2022/06/01 11:11:32;;;;;;;18.85;2.78;;;;;;;;;;4943477;29;20130;-91
2022/06/01 11:14:10;;;;;;;4.93;1.80;;;;;;;;;;4958241;29;20070;-91
2022/06/01 11:16:58;;;;;;;2.17;1.98;;;;;;;;;;4935846;29;20048;-91
2022/06/01 11:19:36;;;;;;;6.67;3.67;;;;;;;;;;4943832;29;20054;-87
2022/06/01 11:22:18;;;;;;;2.70;2.20;;;;;;;;;;4951271;28;20313;-88
2022/06/01 11:24:45;;;;;;;4.22;2.33;;;;;;;;;;4955043;29;20083;-89
2022/06/01 11:27:14;;;;;;;3.30;1.90;;;;;;;;;;4944367;29;20036;-90
2022/06/01 11:30:19;;;;;;;7.00;2.15;;;;;;;;;;4926961;29;20059;-88
2022/06/01 11:32:51;;;;;;;35.33;3.47;;;;;;;;;;4900262;29;20032;-91
2022/06/01 11:35:28;;;;;;;4.47;2.30;;;;;;;;;;4872213;29;20083;-84
2022/06/01 11:41:30;;;;;;;33.42;4.28;;;;;;;;;;4534289;27;20040;-81
2022/06/01 11:55:04;;;;;;;2.13;1.63;;;;;;;;;;4904658;29;20131;-85
2022/06/01 12:32:12;;;;;;;2.00;1.30;;;18.60;99.90;;;;;;4921154;29;20036;-81
2022/06/01 12:42:52;;;;;;;;;;;;;;;;;;;;;
2022/06/01 12:45:28;;;;;;;1.23;1.00;;;;;;;;;;4939638;29;20056;-80
2022/06/01 12:48:02;;;;;;;2.08;1.15;;;;;;;;;;4924161;29;20076;-81
2022/06/01 12:50:33;;;;;;;2.47;1.00;;;;;;;;;;4909936;29;20036;-79
2022/06/01 12:53:28;;;;;;;1.30;1.20;;;;;;;;;;4940807;29;20067;-80
2022/06/01 12:56:24;;;;;;;6.72;1.30;;;16.70;99.90;;;;;;4924287;29;20036;-80
2022/06/01 12:58:51;;;;;;;3.03;1.10;;;;;;;;;;4941416;29;20170;-81
2022/06/01 13:01:18;;;;;;;1.20;0.90;;;;;;;;;;4941434;29;20050;-79
2022/06/01 13:03:52;;;;;;;1.00;0.70;;;;;;;;;;4921712;29;20030;-81
2022/06/01 13:06:22;;;;;;;25.95;1.73;;;;;;;;;;4917266;29;20057;-81
2022/06/01 13:08:59;;;;;;;0.95;0.80;;;;;;;;;;4924990;29;20024;-86
2022/06/01 13:11:31;;;;;;;0.80;0.80;;;;;;;;;;4935314;29;20020;-81
2022/06/01 13:35:41;;;;;;;1.83;1.23;;;;;;;;;;4883158;29;20068;-81
2022/06/01 13:39:20;;;;;;;2.42;1.23;;;18.80;99.90;;;;;;4808592;29;20075;-84
2022/06/01 13:46:05;;;;;;;2.40;1.42;;;;;;;;;;4869965;29;20033;-84
2022/06/01 13:55:28;;;;;;;3.03;1.20;;;;;;;;;;4257422;26;20094;-80
2022/06/01 13:57:54;;;;;;;2.60;1.17;;;;;;;;;;4960592;28;20083;-80
2022/06/01 14:00:26;;;;;;;1.23;1.10;;;;;;;;;;4944578;29;20047;-82
2022/06/01 14:02:54;;;;;;;2.83;1.50;;;;;;;;;;4977655;28;20074;-80
2022/06/01 14:05:36;;;;;;;2.63;1.50;;;;;;;;;;4942898;29;20055;-80
2022/06/01 14:08:23;;;;;;;3.13;1.70;;;;;;;;;;4977095;28;20047;-80
2022/06/01 14:10:51;;;;;;;3.92;1.50;;;;;;;;;;4953787;28;20060;-80
2022/06/01 14:13:18;;;;;;;3.63;1.58;;;;;;;;;;4937635;29;20055;-80
2022/06/01 14:15:45;;;;;;;2.92;1.35;;;;;;;;;;4937430;29;20031;-80
2022/06/01 14:18:14;;;;;;;3.60;2.00;;;;;;;;;;4953928;29;20039;-80
2022/06/01 14:20:40;;;;;;;3.33;1.60;;;;;;;;;;4940211;29;20125;-81
2022/06/01 14:23:06;;;;;;;3.38;1.90;;;;;;;;;;4941228;29;20055;-84
2022/06/01 14:28:30;;;;;;;4.65;1.63;;;;;;;;;;4957591;28;20042;-81
2022/06/01 14:40:25;;;;;;;2.42;1.58;;;;;;;;;;4880995;29;20027;-91
2022/06/01 14:42:56;;;;;;;2.15;1.60;;;;;;;;;;4945324;28;20071;-84
2022/06/01 14:45:22;;;;;;;5.28;1.80;;;;;;;;;;4938888;29;20042;-93
2022/06/01 14:47:48;;;;;;;3.83;1.67;;;;;;;;;;4942768;28;20059;-91
2022/06/01 14:53:22;;;;;;;3.78;1.52;;;;;;;;;;5612285;23;20033;-79
2022/06/01 14:55:52;;;;;;;2.27;1.80;;;;;;;;;;4944443;29;20040;-80
2022/06/01 14:58:18;;;;;;;3.97;1.58;;;;;;;;;;4976101;28;20294;-79
2022/06/01 15:07:10;;;;;;;5.68;2.30;;;;;;;;;;4979431;28;20051;-79
2022/06/01 15:09:37;;;;;;;3.80;2.85;;;;;;;;;;4980338;28;20043;-80
2022/06/01 15:12:10;;;;;;;3.92;2.83;;;;;;;;;;4963832;29;20070;-81
2022/06/01 15:14:37;;;;;;;2.65;2.28;;;;;;;;;;4961789;28;20054;-81
2022/06/01 15:17:07;;;;;;;4.45;3.38;;;;;;;;;;4978794;28;20581;-80
2022/06/01 15:19:36;;;;;;;2.60;2.40;;;;;;;;;;4979742;28;20050;-81
2022/06/01 15:22:03;;;;;;;2.63;2.42;;;;;;;;;;4980085;28;20039;-78
2022/06/01 15:24:29;;;;;;;4.65;2.60;;;;;;;;;;4947500;29;20043;-79
2022/06/01 15:27:17;;;;;;;3.03;2.58;;;;;;;;;;4948969;29;20099;-78
2022/06/01 15:45:59;;;;;;;3.17;1.50;;;;;;;;;;4975419;28;20087;-88
2022/06/01 15:55:04;;;;;;;1.95;1.55;;;;;;;;;;4958672;28;20044;-84
2022/06/01 15:57:44;;;;;;;1.55;1.42;;;;;;;;;;4932125;23;20025;-81
2022/06/01 16:13:20;;;;;;;1.63;1.50;;;;;;;;;;5075399;23;20031;-82
2022/06/01 16:15:47;;;;;;;1.42;1.33;;;;;;;;;;4947947;28;20118;-82
2022/06/01 16:45:31;;;;;;;3.55;2.10;;;;;;;;;;4945946;28;20080;-85
2022/06/01 16:48:30;;;;;;;2.40;1.70;;;;;;;;;;4943239;29;20051;-81
2022/06/01 16:54:58;;;;;;;2.92;2.17;;;;;;;;;;4958358;28;20068;-89
2022/06/01 16:57:29;;;;;;;1.70;1.60;;;;;;;;;;4930895;29;20114;-83
2022/06/01 17:03:06;;;;;;;3.15;1.85;;;;;;;;;;4950065;29;20060;-88
2022/06/01 17:08:28;;;;;;;3.38;1.60;;;;;;;;;;4964023;23;20052;-81
2022/06/01 17:11:56;;;;;;;2.20;1.73;;;;;;;;;;4934479;29;20052;-84
2022/06/01 17:15:10;;;;;;;3.38;1.52;;;;;;;;;;4853248;29;20037;-89
2022/06/01 17:18:09;;;;;;;2.85;1.08;;;;;;;;;;4795102;29;20051;-91
2022/06/01 17:30:39;;;;;;;4.43;1.75;;;;;;;;;;4858313;29;20065;-83
2022/06/01 17:37:18;;;;;;;4.78;2.30;;;;;;;;;;4858597;29;20028;-96
2022/06/01 17:40:11;;;;;;;4.32;2.08;;;;;;;;;;4829554;29;20053;-91
2022/06/01 17:42:53;;;;;;;;;;;;;;;;;;;;;
2022/06/01 17:45:56;;;;;;;2.58;1.25;;;;;;;;;;4866694;29;20047;-89
2022/06/01 17:48:26;;;;;;;2.97;1.90;;;;;;;;;;4865547;29;20120;-86
2022/06/01 17:50:52;;;;;;;2.42;1.80;;;;;;;;;;4871389;29;20084;-86
2022/06/01 17:53:18;;;;;;;3.88;2.13;;;;;;;;;;4858699;29;20171;-87
2022/06/01 17:55:44;;;;;;;1.30;0.90;;;;;;;;;;4866749;29;20599;-87
2022/06/01 17:58:13;;;;;;;2.65;0.90;;;20.30;99.90;;;;;;4866824;29;20136;-80
2022/06/01 18:00:39;;;;;;;4.45;2.10;;;;;;;;;;4866217;29;20053;-80
2022/06/01 18:03:06;;;;;;;2.17;1.42;;;;;;;;;;4884165;29;20049;-82
2022/06/01 18:05:32;;;;;;;2.30;1.40;;;;;;;;;;4868413;29;20147;-81
2022/06/01 18:08:01;;;;;;;4.07;2.33;;;;;;;;;;4899408;29;20063;-80
2022/06/01 18:10:27;;;;;;;1.17;1.00;;;;;;;;;;4875443;29;20139;-81
2022/06/01 18:12:53;;;;;;;1.58;1.23;;;;;;;;;;4900432;29;20179;-83
2022/06/01 18:15:19;;;;;;;2.55;1.48;;;;;;;;;;4906109;29;20079;-81
2022/06/01 18:17:48;;;;;;;2.25;0.95;;;;;;;;;;4914351;29;20108;-79
2022/06/01 18:20:27;;;;;;;2.80;1.75;;;;;;;;;;4918741;29;20040;-79
2022/06/01 18:23:02;;;;;;;2.28;1.10;;;;;;;;;;4912837;29;20079;-88
2022/06/01 18:25:28;;;;;;;3.38;1.80;;;;;;;;;;4912289;29;20164;-84
2022/06/01 18:27:54;;;;;;;3.13;1.75;;;;;;;;;;4907652;29;20071;-83
2022/06/01 18:30:23;;;;;;;2.38;1.50;;;;;;;;;;4906428;29;20036;-88
2022/06/01 18:32:49;;;;;;;4.97;1.45;;;;;;;;;;4910100;29;20110;-87
2022/06/01 18:35:15;;;;;;;1.90;1.45;;;;;;;;;;4907742;29;20119;-85
2022/06/01 18:37:41;;;;;;;3.72;1.30;;;;;;;;;;4908164;29;20541;-88
2022/06/01 18:40:17;;;;;;;3.72;1.88;;;;;;;;;;4910582;29;20046;-86
2022/06/01 18:42:45;;;;;;;5.03;1.77;;;;;;;;;;4910486;29;20123;-87
2022/06/01 18:45:12;;;;;;;2.47;1.63;;;;;;;;;;4923676;29;20145;-87
2022/06/01 18:47:38;;;;;;;1.85;1.30;;;;;;;;;;4908641;29;20040;-88
2022/06/01 18:50:05;;;;;;;3.28;1.77;;;;;;;;;;4922289;29;20048;-85
2022/06/01 18:52:32;;;;;;;1.73;1.55;;;;;;;;;;4910476;29;20085;-85
2022/06/01 18:54:59;;;;;;;3.03;1.48;;;;;;;;;;4896963;29;20473;-85
2022/06/01 18:57:25;;;;;;;5.97;1.67;;;;;;;;;;4912169;29;20388;-88
2022/06/01 19:02:36;;;;;;;3.88;1.45;;;;;;;;;;4886012;29;20172;-79
2022/06/01 19:05:03;;;;;;;2.15;1.60;;;;;;;;;;4906879;29;20071;-80
2022/06/01 19:07:30;;;;;;;2.40;1.80;;;;;;;;;;4932260;29;20063;-81
2022/06/01 19:09:56;;;;;;;3.83;2.13;;;;;;;;;;4898693;29;20036;-82
2022/06/01 19:12:23;;;;;;;1.67;1.50;;;;;;;;;;4937074;29;20058;-87
2022/06/01 19:14:49;;;;;;;3.25;1.73;;;;;;;;;;4917159;29;20092;-88
2022/06/01 19:17:17;;;;;;;3.30;1.90;;;;;;;;;;4912884;29;20059;-85
2022/06/01 19:19:45;;;;;;;1.70;1.55;;;;;;;;;;4924978;29;20048;-86
2022/06/01 19:22:14;;;;;;;2.03;1.48;;;;;;;;;;4907645;29;20565;-87
2022/06/01 19:24:41;;;;;;;1.27;1.00;;;;;;;;;;4912015;29;20040;-89
2022/06/01 19:27:10;;;;;;;2.92;1.52;;;;;;;;;;4908987;29;20381;-85
2022/06/01 19:29:38;;;;;;;2.53;1.52;;;;;;;;;;4893648;29;20743;-87
2022/06/01 19:32:08;;;;;;;5.13;1.90;;;;;;;;;;4912067;29;20044;-89
2022/06/01 19:34:37;;;;;;;1.95;1.80;;;;;;;;;;4879489;29;20136;-83
2022/06/01 19:45:29;;;;;;;3.05;2.05;;;;;;;;;;4910267;29;20126;-85
2022/06/01 19:48:05;;;;;;;2.53;2.30;;;;;;;;;;4910769;29;20048;-89
2022/06/01 19:50:32;;;;;;;4.53;2.40;;;;;;;;;;4903197;29;20039;-87
2022/06/01 19:52:58;;;;;;;6.75;3.10;;;;;;;;;;4899925;29;20056;-86
2022/06/01 19:55:25;;;;;;;5.43;2.80;;;;;;;;;;4891245;29;20040;-87
2022/06/01 19:57:51;;;;;;;6.68;2.80;;;;;;;;;;4886040;29;20500;-88
2022/06/01 20:00:21;;;;;;;4.68;3.13;;;;;;;;;;4872565;29;20138;-89
2022/06/01 20:02:47;;;;;;;8.43;3.22;;;;;;;;;;4900917;29;20044;-86
2022/06/01 20:05:14;;;;;;;3.00;2.70;;;;;;;;;;4904026;29;20048;-84
2022/06/01 20:07:41;;;;;;;3.13;2.78;;;;;;;;;;4906986;29;20465;-89
2022/06/01 20:10:07;;;;;;;4.00;2.63;;;;;;;;;;4904097;29;20040;-89
2022/06/01 20:15:27;;;;;;;5.57;3.25;;;;;;;;;;4872082;29;20059;-80
2022/06/01 20:17:54;;;;;;;3.65;2.83;;;;;;;;;;4905089;29;20167;-86
2022/06/01 20:20:20;;;;;;;4.15;2.85;;;;;;;;;;4887106;29;20056;-86
2022/06/01 20:22:46;;;;;;;4.75;2.80;;;;;;;;;;4905442;29;20051;-89
2022/06/01 20:25:12;;;;;;;3.40;2.60;;;;;;;;;;4902479;29;20061;-85
2022/06/01 20:27:38;;;;;;;4.25;2.42;;;;;;;;;;4903691;29;20036;-88
2022/06/01 20:30:06;;;;;;;5.00;2.47;;;;;;;;;;4906653;29;20051;-87
2022/06/01 20:32:32;;;;;;;8.63;2.30;;;;;;;;;;4914164;29;20044;-86
2022/06/01 20:34:58;;;;;;;3.55;2.67;;;;;;;;;;4907624;29;20108;-90
2022/06/01 20:37:24;;;;;;;3.78;2.40;;;;;;;;;;4913024;29;20058;-91